• Join FlightAware (Why Join?)
  • Login
  • US Flag 
Rudolph Flight #1: Arrived! 
09:31PM EST


 

Airport Tracker/Info


-or-


 

Live Flight TrackerFlight Track Log ✈ DAL6036 ✈ 28-Apr-2013 ✈ KDTW - KTVC

Flight Track Log - Related Links

Times and Time Zones

All times are in EDT time to prevent confusion due to time zone crossing. See the DAL6036 flight status page for this flight to view local times or setup timezone preferences in your user account.

Time Position Orientation Groundspeed Altitude Reporting Facility
EDT Latitude Longitude Course Direction KTS MPH feet Rate Location/Type
08:37PM 42.2333 -83.3317 323° Northwest 163 188 1,300  Level Cleveland Center
08:38PM 42.3006 -83.3203 North 227 261 3,700 1,980 Climbing Cleveland Center
08:39PM 42.3631 -83.3231 358° North 256 295 5,600 2,100 Climbing Cleveland Center
08:40PM 42.4356 -83.3319 355° North 275 316 7,600 2,100 Climbing Cleveland Center
08:41PM 42.5873 -83.3500 North  Level FlightAware Approximate
08:41PM 42.5022 -83.3347 358° North 287 330 9,700  Level Cleveland Center
08:42PM 42.6841 -83.3500 North  Level FlightAware Approximate
08:42PM 42.5833 -83.3411 357° North 287 330 11,500  Level Cleveland Center
08:43PM 42.7519 -83.4204 323° Northwest  Level Estimated
08:43PM 42.6772 -83.3481 357° North 299 344 13,100  Level Cleveland Center
08:44PM 42.7686 -83.3550 357° North 321 369 14,800 1,740 Climbing Cleveland Center
08:45PM 42.8664 -83.3622 357° North 335 386 16,600 2,100 Climbing Cleveland Center
08:46PM 42.9622 -83.3692 357° North 340 391 19,000 1,680 Climbing Cleveland Center
08:47PM 43.0533 -83.3933 349° North 340 391 20,000 480 Climbing Cleveland Center
08:48PM 43.1322 -83.4878 319° Northwest 340 391 20,000  Level Cleveland Center
08:49PM 43.2069 -83.5797 318° Northwest 351 404 20,000  Level Cleveland Center
08:50PM 43.2794 -83.6744 316° Northwest 357 411 20,000  Level Cleveland Center
08:52PM 43.4133 -83.8433 318° Northwest 364 419 20,000  Level Minneapolis Center
08:53PM 43.5022 -83.9542 318° Northwest 363 418 20,000  Level Minneapolis Center
08:54PM 43.5736 -84.0458 317° Northwest 357 411 20,000  Level Minneapolis Center
08:55PM 43.6461 -84.1378 317° Northwest 355 409 20,000  Level Minneapolis Center
08:56PM 43.7164 -84.2286 317° Northwest 350 403 20,000  Level Minneapolis Center
08:57PM 43.7867 -84.3189 317° Northwest 348 400 20,000  Level Minneapolis Center
08:58PM 43.8569 -84.4094 317° Northwest 347 399 20,000  Level Minneapolis Center
08:59PM 43.9414 -84.5189 317° Northwest 347 399 20,000  Level Minneapolis Center
09:00PM 44.0119 -84.6108 317° Northwest 349 402 20,000 -720 Level Minneapolis Center
09:01PM 44.0853 -84.7072 317° Northwest 347 399 18,600 -1,680 Descending Minneapolis Center
09:02PM 44.1567 -84.8008 317° Northwest 351 404 16,600 -1,920 Descending Minneapolis Center
09:03PM 44.2267 -84.8931 317° Northwest 349 402 14,700 -2,040 Descending Minneapolis Center
09:05PM 44.2939 -84.9806 317° Northwest 338 389 12,500 -1,980 Descending Minneapolis Center
09:06PM 44.3575 -85.0644 317° Northwest 324 373 10,700 -1,680 Descending Minneapolis Center
09:07PM 44.4156 -85.1431 316° Northwest 301 346 9,100 -1,800 Descending Minneapolis Center
09:08PM 44.4808 -85.2308 316° Northwest 279 321 7,000 -1,800 Descending Minneapolis Center
09:09PM 44.5350 -85.3025 317° Northwest 273 314 5,400 -1,680 Descending Minneapolis Center
09:10PM 44.5858 -85.3711 316° Northwest 264 304 3,600 -1,200 Descending Minneapolis Center
09:11PM 44.6444 -85.3981 342° North 243 280 3,000 -540 Descending Minneapolis Center
09:12PM 44.7064 -85.4144 349° North 233 268 2,600 -420 Descending Minneapolis Center